createdAt,value
2022-11-14T00:00:23.118Z,87.26
2022-11-14T00:05:43.331Z,88.74
2022-11-14T00:10:59.241Z,89.28
2022-11-14T00:16:14.498Z,89.02
2022-11-14T00:21:29.731Z,87.77
2022-11-14T00:26:48.779Z,87.14
2022-11-14T00:32:05.974Z,83.99
2022-11-14T00:37:21.362Z,85.78
2022-11-14T00:42:37.340Z,85.83
2022-11-14T00:47:53.821Z,85.55
2022-11-14T00:53:12.394Z,84.74
2022-11-14T00:58:31.920Z,83.67
2022-11-14T01:03:50.175Z,83.63
2022-11-14T01:09:05.538Z,82.98
2022-11-14T01:14:24.813Z,82.26
2022-11-14T01:19:42.510Z,82.54
2022-11-14T01:25:00.084Z,82.98
2022-11-14T01:30:16.484Z,82.52
2022-11-14T01:35:34.009Z,81.76
2022-11-14T01:40:49.119Z,82.74
2022-11-14T01:46:09.778Z,82.71
2022-11-14T01:51:27.478Z,82.29
2022-11-14T01:56:44.934Z,83.25
2022-11-14T02:02:03.790Z,82.43
2022-11-14T02:07:23.830Z,82.30
2022-11-14T02:12:39.098Z,82.15
2022-11-14T02:17:55.208Z,81.76
2022-11-14T02:23:12.722Z,84.76
2022-11-14T02:28:28.537Z,86.23
2022-11-14T02:33:47.328Z,88.29
2022-11-14T02:39:03.064Z,90.15
2022-11-14T02:44:19.073Z,90.35
2022-11-14T02:49:35.701Z,90.08
2022-11-14T02:54:54.487Z,90.30
2022-11-14T03:00:14.922Z,90.55
2022-11-14T03:05:30.623Z,91.15
2022-11-14T03:10:46.393Z,91.42
2022-11-14T03:16:05.260Z,91.60
2022-11-14T03:21:22.461Z,93.28
2022-11-14T03:26:38.550Z,93.26
2022-11-14T03:31:56.252Z,93.17
2022-11-14T03:37:12.094Z,90.66
2022-11-14T03:42:34.016Z,90.56
2022-11-14T03:47:49.561Z,89.56
2022-11-14T03:53:05.192Z,89.50
2022-11-14T03:58:24.346Z,89.15
2022-11-14T04:03:41.186Z,88.81
2022-11-14T04:08:56.721Z,86.85
2022-11-14T04:14:14.138Z,86.33
2022-11-14T04:19:29.484Z,86.80
2022-11-14T04:24:48.174Z,85.75
2022-11-14T04:30:10.469Z,86.62
2022-11-14T04:35:27.758Z,86.80
2022-11-14T04:40:50.621Z,86.14
2022-11-14T04:46:06.833Z,85.54
2022-11-14T04:51:22.315Z,85.03
2022-11-14T04:56:37.875Z,85.36
2022-11-14T05:01:53.639Z,84.81
2022-11-14T05:07:09.095Z,84.34
2022-11-14T05:12:24.682Z,83.69
2022-11-14T05:17:40.763Z,83.56
2022-11-14T05:22:57.837Z,83.76
2022-11-14T05:28:15.453Z,84.08
2022-11-14T05:33:35.893Z,84.23
2022-11-14T05:38:51.229Z,83.55
2022-11-14T05:44:07.057Z,83.56
2022-11-14T05:49:23.792Z,83.06
2022-11-14T05:54:39.423Z,82.40
2022-11-14T05:59:54.413Z,83.49
2022-11-14T06:05:10.782Z,83.01
2022-11-14T06:10:28.528Z,83.00
2022-11-14T06:15:43.682Z,83.54
2022-11-14T06:21:00.386Z,83.25
2022-11-14T06:26:20.645Z,83.99
2022-11-14T06:31:37.879Z,84.02
2022-11-14T06:36:54.089Z,83.94
2022-11-14T06:42:11.737Z,86.06
2022-11-14T06:47:26.947Z,85.82
2022-11-14T06:52:46.003Z,85.10
2022-11-14T06:58:02.695Z,85.58
2022-11-14T07:03:17.947Z,86.77
2022-11-14T07:08:37.460Z,88.17
2022-11-14T07:13:55.664Z,88.86
2022-11-14T07:19:10.912Z,89.02
2022-11-14T07:24:47.748Z,89.36
2022-11-14T07:30:08.077Z,90.13
2022-11-14T07:35:31.676Z,90.06
2022-11-14T07:41:25.373Z,91.28
2022-11-14T07:46:59.853Z,91.23
2022-11-14T07:53:01.923Z,91.17
2022-11-14T07:58:51.591Z,91.62
2022-11-14T08:04:27.983Z,92.34
2022-11-14T08:09:43.342Z,93.58
2022-11-14T08:15:09.545Z,92.38
2022-11-14T08:20:34.889Z,91.83
2022-11-14T08:26:06.031Z,89.34
2022-11-14T08:31:49.646Z,87.82
2022-11-14T08:37:18.181Z,87.13
2022-11-14T08:43:01.594Z,87.22
2022-11-14T08:49:08.297Z,86.19
2022-11-14T08:55:01.094Z,85.26
2022-11-14T09:00:23.354Z,85.03
2022-11-14T09:05:41.604Z,84.08
2022-11-14T09:11:06.424Z,84.39
2022-11-14T09:16:22.544Z,83.95
2022-11-14T09:21:38.033Z,83.90
2022-11-14T09:26:56.958Z,83.29
2022-11-14T09:32:14.023Z,84.04
2022-11-14T09:37:28.921Z,85.20
2022-11-14T09:42:58.202Z,85.29
2022-11-14T09:48:16.082Z,85.50
2022-11-14T09:53:33.139Z,84.83
2022-11-14T09:58:49.603Z,86.11
2022-11-14T10:04:13.004Z,86.39
2022-11-14T10:09:35.240Z,86.74
2022-11-14T10:14:57.818Z,85.77
2022-11-14T10:20:16.318Z,86.84
2022-11-14T10:25:44.052Z,86.39
2022-11-14T10:31:05.522Z,87.75
2022-11-14T10:36:27.902Z,86.18
2022-11-14T10:42:06.173Z,85.76
2022-11-14T10:47:30.448Z,86.97
2022-11-14T10:52:46.802Z,86.93
2022-11-14T10:58:02.591Z,86.51
2022-11-14T11:03:20.455Z,86.85
2022-11-14T11:08:59.516Z,87.07
2022-11-14T11:14:16.385Z,88.16
2022-11-14T11:19:34.855Z,88.17
2022-11-14T11:24:53.350Z,88.21
2022-11-14T11:30:19.155Z,87.35
2022-11-14T11:35:35.336Z,87.35
2022-11-14T11:40:55.214Z,87.14
2022-11-14T11:46:16.225Z,85.59
2022-11-14T11:51:39.708Z,86.99
2022-11-14T11:57:00.744Z,87.38
2022-11-14T12:02:22.323Z,87.34
2022-11-14T12:07:45.190Z,86.47
2022-11-14T12:13:15.600Z,86.81
2022-11-14T12:18:43.210Z,86.25
2022-11-14T12:24:13.178Z,87.26
2022-11-14T12:29:46.442Z,86.24
2022-11-14T12:35:07.367Z,85.35
2022-11-14T12:40:33.812Z,86.93
2022-11-14T12:45:59.396Z,88.26
2022-11-14T12:51:50.269Z,86.94
2022-11-14T12:57:10.778Z,86.18
2022-11-14T13:02:34.798Z,85.51
2022-11-14T13:07:57.800Z,86.42
2022-11-14T13:13:34.411Z,85.14
2022-11-14T13:19:09.431Z,84.44
2022-11-14T13:24:28.851Z,84.18
2022-11-14T13:29:51.309Z,85.05
2022-11-14T13:35:12.200Z,82.22
2022-11-14T13:40:28.444Z,80.59
2022-11-14T13:45:55.881Z,79.88
2022-11-14T13:51:41.833Z,79.38
2022-11-14T13:56:57.545Z,79.75
2022-11-14T14:02:32.036Z,79.46
2022-11-14T14:07:54.498Z,78.26
2022-11-14T14:13:19.842Z,79.66
2022-11-14T14:18:43.168Z,80.42
2022-11-14T14:24:02.927Z,80.52
2022-11-14T14:29:22.702Z,80.75
2022-11-14T14:34:41.194Z,79.60
2022-11-14T14:40:01.837Z,80.13
2022-11-14T14:45:18.537Z,79.31
2022-11-14T14:50:37.209Z,80.46
2022-11-14T14:55:56.666Z,80.67
2022-11-14T15:01:14.063Z,80.13
2022-11-14T15:06:34.122Z,79.46
2022-11-14T15:11:50.677Z,80.12
2022-11-14T15:17:06.413Z,79.42
2022-11-14T15:22:28.830Z,78.61
2022-11-14T15:27:48.432Z,78.88
2022-11-14T15:33:07.736Z,78.85
2022-11-14T15:44:01.745Z,79.46
2022-11-14T15:49:20.151Z,79.47
2022-11-14T15:54:38.308Z,78.84
2022-11-14T15:59:53.865Z,77.79
2022-11-14T16:05:12.121Z,78.45
2022-11-14T16:10:28.536Z,79.05
2022-11-14T16:15:49.933Z,78.67
2022-11-14T16:21:11.158Z,78.87
2022-11-14T16:26:31.931Z,78.82
2022-11-14T16:31:48.595Z,78.54
2022-11-14T16:37:03.723Z,78.65
2022-11-14T16:42:19.752Z,78.52
2022-11-14T16:47:50.297Z,77.20
2022-11-14T16:53:06.045Z,77.69
2022-11-14T16:58:22.042Z,77.91
2022-11-14T17:03:37.130Z,77.40
2022-11-14T17:09:01.624Z,76.96
2022-11-14T17:14:17.786Z,76.79
2022-11-14T17:19:33.928Z,76.64
2022-11-14T17:24:49.423Z,76.56
2022-11-14T17:30:06.598Z,76.29
2022-11-14T17:35:24.592Z,76.18
2022-11-14T17:40:39.903Z,75.30
2022-11-14T17:45:56.168Z,75.32
2022-11-14T17:51:12.881Z,75.90
2022-11-14T17:56:28.117Z,76.84
2022-11-14T18:01:44.009Z,76.66
2022-11-14T18:06:59.360Z,77.41
2022-11-14T18:12:14.974Z,78.17
2022-11-14T18:17:31.553Z,77.92
2022-11-14T18:22:46.896Z,79.09
2022-11-14T18:28:02.118Z,79.44
2022-11-14T18:33:19.100Z,79.34
2022-11-14T18:38:34.594Z,79.76
2022-11-14T18:43:57.471Z,80.18
2022-11-14T18:49:16.130Z,80.63
2022-11-14T18:54:31.496Z,81.77
2022-11-14T18:59:46.992Z,81.65
2022-11-14T19:05:03.021Z,82.68
2022-11-14T19:10:18.318Z,82.72
2022-11-14T19:15:33.778Z,83.05
2022-11-14T19:20:56.784Z,82.01
2022-11-14T19:26:11.879Z,80.49
2022-11-14T19:31:27.335Z,79.33
2022-11-14T19:36:59.421Z,79.60
2022-11-14T19:42:20.544Z,79.04
2022-11-14T19:47:38.575Z,78.44
2022-11-14T19:52:54.564Z,77.98
2022-11-14T19:58:09.724Z,77.36
2022-11-14T20:03:24.959Z,77.61
2022-11-14T20:08:41.018Z,77.12
2022-11-14T20:13:56.843Z,77.02
2022-11-14T20:19:14.179Z,78.54
2022-11-14T20:24:30.637Z,78.83
2022-11-14T20:29:53.482Z,80.86
2022-11-14T20:35:09.271Z,80.64
2022-11-14T20:40:28.148Z,80.59
2022-11-14T20:45:54.198Z,80.43
2022-11-14T20:51:11.915Z,80.68
2022-11-14T20:56:28.431Z,79.90
2022-11-14T21:01:44.420Z,79.87
2022-11-14T21:07:00.900Z,80.37
2022-11-14T21:12:16.774Z,79.27
2022-11-14T21:17:32.167Z,79.12
2022-11-14T21:22:47.466Z,79.62
2022-11-14T21:28:09.317Z,78.91
2022-11-14T21:33:28.439Z,78.48
2022-11-14T21:38:44.700Z,77.11
2022-11-14T21:44:01.849Z,76.92
2022-11-14T21:49:17.168Z,76.73
2022-11-14T21:54:32.762Z,77.64
2022-11-14T21:59:48.644Z,77.74
2022-11-14T22:05:06.274Z,77.64
2022-11-14T22:10:21.936Z,77.66
2022-11-14T22:15:41.533Z,78.01
2022-11-14T22:21:00.945Z,78.02
2022-11-14T22:26:16.515Z,81.09
2022-11-14T22:31:33.787Z,82.32
2022-11-14T22:36:49.137Z,82.42
2022-11-14T22:42:04.189Z,81.87
2022-11-14T22:47:20.133Z,81.37
2022-11-14T22:52:35.581Z,80.57
2022-11-14T22:57:50.767Z,81.18
2022-11-14T23:03:06.747Z,79.54
2022-11-14T23:08:22.468Z,79.30
2022-11-14T23:13:38.535Z,79.93
2022-11-14T23:18:54.870Z,81.72
2022-11-14T23:24:13.925Z,81.53
2022-11-14T23:29:29.215Z,82.25
2022-11-14T23:34:45.483Z,82.48
2022-11-14T23:40:00.663Z,81.38
2022-11-14T23:45:15.903Z,80.80
2022-11-14T23:50:40.542Z,81.44
2022-11-14T23:55:59.239Z,78.95
